Time;durP1;ratioP1;P1;durP2;ratioP2;P2;SDS_P1;SDS_P2;PMS_P1;PMS_P2;Temp;Humidity;BMP_temperature;BMP_pressure;BME280_temperature;BME280_humidity;BME280_pressure;Samples;Min_cycle;Max_cycle;Signal;HPM_P1;HPM_P2
2023/12/08 00:01:01;;;;;;;52.50;24.97;;;;;;;-0.33;100.00;100996.31;10407812;28;20094;-76
2023/12/08 00:06:02;;;;;;;52.80;24.60;;;;;;;-0.34;100.00;100985.69;10424119;28;20041;-77
2023/12/08 00:11:04;;;;;;;50.77;22.97;;;;;;;-0.29;100.00;100997.66;10423864;28;20041;-77
2023/12/08 00:16:04;;;;;;;45.47;20.77;;;;;;;-0.36;100.00;100982.31;10406399;28;20053;-73
2023/12/08 00:21:05;;;;;;;44.87;20.43;;;;;;;-0.30;100.00;100982.41;10409970;28;20047;-76
2023/12/08 00:26:06;;;;;;;49.80;21.90;;;;;;;-0.31;100.00;100963.66;10389550;28;20055;-77
2023/12/08 00:31:06;;;;;;;45.58;21.20;;;;;;;-0.29;100.00;100951.66;10405307;28;20555;-76
2023/12/08 00:36:13;;;;;;;43.38;20.80;;;;;;;-0.30;100.00;100939.13;10420926;28;20045;-76
2023/12/08 00:41:14;;;;;;;41.20;20.03;;;;;;;-0.36;100.00;100931.75;10447179;28;20092;-77
2023/12/08 00:46:16;;;;;;;47.33;21.20;;;;;;;-0.30;100.00;100939.13;10438106;28;20064;-77
2023/12/08 00:51:17;;;;;;;42.73;22.03;;;;;;;-0.55;100.00;100895.22;10406520;28;20044;-77
2023/12/08 00:56:17;;;;;;;44.37;21.07;;;;;;;-0.35;100.00;100928.03;10438549;28;20045;-77
2023/12/08 01:01:19;;;;;;;44.37;23.27;;;;;;;-0.33;100.00;100923.28;10421715;28;20479;-76
2023/12/08 01:06:20;;;;;;;46.03;20.53;;;;;;;-0.37;100.00;100897.63;10389817;28;20037;-77
2023/12/08 01:11:20;;;;;;;46.37;20.73;;;;;;;-0.44;100.00;100861.47;10405592;28;20087;-77
2023/12/08 01:16:21;;;;;;;43.13;21.43;;;;;;;-0.47;100.00;100869.97;10405787;28;20099;-77
2023/12/08 01:21:21;;;;;;;41.03;21.33;;;;;;;-0.36;100.00;100869.53;10423078;28;20040;-77
2023/12/08 01:26:22;;;;;;;43.73;21.90;;;;;;;-0.45;100.00;100860.66;10420837;28;20523;-76
2023/12/08 01:31:22;;;;;;;44.93;20.83;;;;;;;-0.35;100.00;100873.94;10387344;28;20060;-77
2023/12/08 01:36:22;;;;;;;43.63;20.03;;;;;;;-0.35;100.00;100882.03;10404359;28;20037;-76
2023/12/08 01:41:23;;;;;;;40.57;20.93;;;;;;;-0.32;100.00;100878.97;10404201;28;20053;-77
2023/12/08 01:46:24;;;;;;;38.63;19.57;;;;;;;-0.36;100.00;100847.88;10421852;28;20067;-77
2023/12/08 01:51:24;;;;;;;41.97;21.50;;;;;;;-0.34;100.00;100845.84;10405791;28;20044;-77
2023/12/08 01:56:26;;;;;;;38.53;18.63;;;;;;;-0.25;100.00;100852.88;10394378;28;20037;-76
2023/12/08 02:01:26;;;;;;;40.97;19.00;;;;;;;-0.22;100.00;100860.59;10414535;28;20033;-77
2023/12/08 02:06:27;;;;;;;39.10;19.25;;;;;;;-0.20;100.00;100863.13;10408865;28;20083;-77
2023/12/08 02:11:27;;;;;;;38.07;19.30;;;;;;;-0.24;100.00;100854.53;10419206;28;20044;-76
2023/12/08 02:16:41;;;;;;;31.10;17.67;;;;;;;-0.24;100.00;100851.81;10406229;28;20049;-78
2023/12/08 02:21:41;;;;;;;34.87;17.93;;;;;;;-0.25;100.00;100839.34;10403704;28;20048;-76
2023/12/08 02:26:42;;;;;;;31.37;16.80;;;;;;;-0.17;100.00;100834.84;10419278;28;20532;-77
2023/12/08 02:31:48;;;;;;;36.17;17.50;;;;;;;-0.14;100.00;100837.22;10419552;28;20485;-76
2023/12/08 02:36:49;;;;;;;32.22;17.13;;;;;;;-0.19;100.00;100810.69;10402961;28;20045;-77
2023/12/08 02:41:50;;;;;;;33.60;15.80;;;;;;;-0.16;100.00;100814.91;10404188;28;20041;-76
2023/12/08 02:46:50;;;;;;;32.90;16.53;;;;;;;-0.19;100.00;100824.22;10403809;28;20048;-76
2023/12/08 02:51:51;;;;;;;31.03;15.90;;;;;;;-0.17;100.00;100824.03;10385757;28;20037;-76
2023/12/08 02:56:51;;;;;;;28.73;15.33;;;;;;;-0.13;100.00;100825.34;10402223;28;20044;-76
2023/12/08 03:01:52;;;;;;;28.17;14.87;;;;;;;-0.14;100.00;100823.69;10401088;28;20558;-77
2023/12/08 03:06:52;;;;;;;29.93;15.60;;;;;;;-0.12;100.00;100829.75;10433101;28;20041;-77
2023/12/08 03:11:53;;;;;;;29.03;15.43;;;;;;;-0.10;100.00;100825.81;10432671;28;20067;-74
2023/12/08 03:16:53;;;;;;;26.20;13.50;;;;;;;-0.09;100.00;100821.25;10405004;28;20065;-75
2023/12/08 03:21:54;;;;;;;31.27;15.43;;;;;;;-0.07;100.00;100811.06;10394169;28;20048;-75
2023/12/08 03:26:54;;;;;;;28.67;14.10;;;;;;;-0.12;100.00;100806.22;10433895;28;20123;-75
2023/12/08 03:31:55;;;;;;;24.30;13.80;;;;;;;-0.10;100.00;100806.03;10399745;28;20061;-76
2023/12/08 03:36:55;;;;;;;30.50;13.93;;;;;;;-0.09;100.00;100796.88;10409258;28;20048;-77
2023/12/08 03:41:57;;;;;;;27.70;14.03;;;;;;;-0.04;100.00;100802.59;10410358;28;20064;-76
2023/12/08 03:46:57;;;;;;;28.10;13.03;;;;;;;-0.09;100.00;100796.88;10407360;28;20056;-77
2023/12/08 03:51:58;;;;;;;25.77;14.40;;;;;;;-0.06;100.00;100799.22;10425343;28;20060;-76
2023/12/08 03:56:58;;;;;;;22.37;12.60;;;;;;;0.00;100.00;100803.91;10402553;28;20045;-74
2023/12/08 04:01:59;;;;;;;24.55;12.95;;;;;;;0.02;100.00;100801.81;10409230;28;20033;-76
2023/12/08 04:06:59;;;;;;;22.92;12.80;;;;;;;0.06;100.00;100805.00;10424840;28;20037;-77
2023/12/08 04:11:59;;;;;;;21.70;12.73;;;;;;;0.07;100.00;100799.41;10416281;28;20076;-76
2023/12/08 04:17:00;;;;;;;21.88;12.23;;;;;;;0.09;100.00;100791.94;10394244;28;20041;-76
2023/12/08 04:22:00;;;;;;;25.42;13.25;;;;;;;0.14;100.00;100799.50;10408084;28;20041;-76
2023/12/08 04:27:01;;;;;;;23.37;12.03;;;;;;;0.18;100.00;100796.22;10405846;28;20041;-76
2023/12/08 04:32:02;;;;;;;21.63;12.63;;;;;;;0.10;100.00;100788.19;10398947;28;20096;-76
2023/12/08 04:37:04;;;;;;;23.33;12.87;;;;;;;0.23;100.00;100797.50;10422720;28;20041;-77
2023/12/08 04:42:04;;;;;;;24.50;13.40;;;;;;;0.18;100.00;100785.38;10409021;28;20324;-77
2023/12/08 04:47:05;;;;;;;22.33;12.20;;;;;;;0.13;100.00;100787.84;10400610;28;20056;-75
2023/12/08 04:52:05;;;;;;;25.93;13.20;;;;;;;0.14;100.00;100789.50;10405544;28;20041;-76
2023/12/08 04:57:06;;;;;;;23.20;12.70;;;;;;;0.07;100.00;100766.91;10422268;28;20033;-76
2023/12/08 05:02:06;;;;;;;22.80;12.70;;;;;;;0.00;100.00;100755.19;10390118;28;20065;-76
2023/12/08 05:07:07;;;;;;;25.83;12.63;;;;;;;-0.07;100.00;100757.78;10415922;28;20496;-77
2023/12/08 05:12:07;;;;;;;24.15;13.73;;;;;;;-0.18;100.00;100733.06;10405654;28;20067;-76
2023/12/08 05:17:08;;;;;;;24.48;13.40;;;;;;;-0.21;100.00;100736.97;10406871;28;20037;-77
2023/12/08 05:22:08;;;;;;;23.83;13.60;;;;;;;-0.28;100.00;100742.31;10403374;28;20045;-76
2023/12/08 05:27:09;;;;;;;29.83;15.07;;;;;;;-0.31;100.00;100733.72;10421040;28;20037;-76
2023/12/08 05:32:10;;;;;;;31.30;15.90;;;;;;;-0.23;100.00;100701.16;10421459;28;20045;-76
2023/12/08 05:37:10;;;;;;;30.45;16.27;;;;;;;-0.16;100.00;100710.22;10395486;28;20124;-76
2023/12/08 05:42:11;;;;;;;31.27;15.93;;;;;;;-0.17;100.00;100721.22;10414377;28;20045;-76
2023/12/08 05:47:11;;;;;;;32.05;15.10;;;;;;;-0.19;100.00;100718.69;10436124;28;20084;-76
2023/12/08 05:52:12;;;;;;;33.47;17.40;;;;;;;-0.21;100.00;100718.91;10437113;28;20048;-75
2023/12/08 05:57:12;;;;;;;32.03;16.00;;;;;;;-0.22;100.00;100702.84;10404947;28;20029;-76
2023/12/08 06:02:13;;;;;;;39.23;17.43;;;;;;;-0.26;100.00;100710.47;10390891;28;20470;-75
2023/12/08 06:07:13;;;;;;;37.30;16.87;;;;;;;-0.27;100.00;100706.13;10402581;28;20049;-75
2023/12/08 06:12:14;;;;;;;35.03;17.60;;;;;;;-0.34;100.00;100701.63;10422404;28;20405;-75
2023/12/08 06:17:14;;;;;;;35.73;19.70;;;;;;;-0.32;100.00;100703.13;10407662;28;20053;-75
2023/12/08 06:22:15;;;;;;;38.43;17.80;;;;;;;-0.31;100.00;100696.69;10436590;28;20071;-76
2023/12/08 06:27:15;;;;;;;42.23;18.33;;;;;;;-0.36;100.00;100696.41;10411982;28;20037;-76
2023/12/08 06:32:18;;;;;;;40.87;18.07;;;;;;;-0.35;100.00;100698.09;10402560;28;20071;-75
2023/12/08 06:37:19;;;;;;;42.33;18.63;;;;;;;-0.32;100.00;100703.13;10378872;28;20049;-75
2023/12/08 06:42:19;;;;;;;45.60;19.63;;;;;;;-0.31;100.00;100699.41;10382092;28;20072;-76
2023/12/08 06:47:20;;;;;;;46.30;21.20;;;;;;;-0.37;100.00;100694.75;10396033;28;20064;-75
2023/12/08 06:52:20;;;;;;;40.20;20.27;;;;;;;-0.32;100.00;100708.53;10383428;28;20041;-77
2023/12/08 06:57:21;;;;;;;45.07;20.10;;;;;;;-0.32;100.00;100703.13;10385173;28;20038;-74
2023/12/08 07:02:21;;;;;;;48.17;21.43;;;;;;;-0.28;100.00;100698.19;10402760;28;20041;-75
2023/12/08 07:07:22;;;;;;;45.73;21.27;;;;;;;-0.31;100.00;100696.69;10422241;28;20030;-75
2023/12/08 07:12:22;;;;;;;44.13;22.13;;;;;;;-0.31;100.00;100703.94;10380572;28;20037;-76
2023/12/08 07:17:23;;;;;;;51.23;24.17;;;;;;;-0.30;100.00;100711.88;10418985;28;20034;-76
2023/12/08 07:22:23;;;;;;;51.20;22.10;;;;;;;-0.31;100.00;100704.81;10403079;28;20041;-76
2023/12/08 07:27:24;;;;;;;54.27;23.30;;;;;;;-0.33;100.00;100706.88;10411849;28;20034;-76
2023/12/08 07:32:24;;;;;;;49.53;21.93;;;;;;;-0.29;100.00;100708.16;10363626;28;20033;-76
2023/12/08 07:37:25;;;;;;;49.20;23.70;;;;;;;-0.28;100.00;100704.41;10363620;28;20049;-76
2023/12/08 07:42:26;;;;;;;53.37;23.13;;;;;;;-0.36;100.00;100680.16;10420502;28;20064;-77
2023/12/08 07:47:27;;;;;;;54.33;22.60;;;;;;;-0.35;100.00;100676.47;10386409;28;20037;-76
2023/12/08 07:52:27;;;;;;;56.80;23.57;;;;;;;-0.30;100.00;100675.88;10400513;28;20095;-76
2023/12/08 07:57:28;;;;;;;56.50;23.87;;;;;;;-0.29;100.00;100680.25;10385605;28;20374;-77
2023/12/08 08:02:28;;;;;;;57.90;26.90;;;;;;;-0.29;100.00;100683.81;10419518;28;20037;-76
2023/12/08 08:07:29;;;;;;;56.20;24.37;;;;;;;-0.29;100.00;100694.66;10419517;28;20041;-76
2023/12/08 08:12:32;;;;;;;58.87;25.10;;;;;;;-0.25;100.00;100697.78;10382710;28;20049;-75
2023/12/08 08:17:32;;;;;;;55.20;23.38;;;;;;;-0.23;100.00;100707.41;10416835;28;20042;-75
2023/12/08 08:22:33;;;;;;;61.30;23.53;;;;;;;-0.20;100.00;100711.59;10381106;28;20413;-76
2023/12/08 08:27:33;;;;;;;56.80;24.50;;;;;;;-0.17;100.00;100702.28;10416092;28;20168;-75
2023/12/08 08:32:34;;;;;;;59.70;24.13;;;;;;;-0.18;100.00;100695.19;10407385;28;20044;-75
2023/12/08 08:37:34;;;;;;;64.53;25.30;;;;;;;-0.16;100.00;100693.13;10400678;28;20046;-74
2023/12/08 08:42:36;;;;;;;52.63;23.30;;;;;;;-0.15;100.00;100692.09;10385799;28;20038;-74
2023/12/08 08:47:37;;;;;;;54.87;23.47;;;;;;;-0.08;100.00;100715.53;10394512;28;20072;-74
2023/12/08 08:52:38;;;;;;;58.80;25.73;;;;;;;-0.11;100.00;100704.22;10399933;28;20076;-74
2023/12/08 08:57:38;;;;;;;54.40;24.17;;;;;;;-0.06;100.00;100707.22;10403417;28;20038;-74
2023/12/08 09:02:38;;;;;;;58.40;24.57;;;;;;;-0.08;100.00;100707.41;10401316;28;20064;-74
2023/12/08 09:07:39;;;;;;;52.60;23.50;;;;;;;-0.02;100.00;100705.81;10415900;28;20437;-73
2023/12/08 09:12:39;;;;;;;53.70;24.17;;;;;;;-0.01;100.00;100694.78;10383944;28;20506;-74
2023/12/08 09:17:40;;;;;;;56.15;23.33;;;;;;;0.01;100.00;100701.88;10414428;28;20060;-74
2023/12/08 09:22:44;;;;;;;53.83;21.63;;;;;;;0.05;100.00;100695.06;10425261;28;20056;-73
2023/12/08 09:27:44;;;;;;;52.03;23.50;;;;;;;0.09;100.00;100699.91;10434607;28;20049;-74
2023/12/08 09:32:44;;;;;;;51.97;24.67;;;;;;;0.13;100.00;100705.78;10439192;28;20052;-74
2023/12/08 09:37:45;;;;;;;58.70;25.63;;;;;;;0.18;100.00;100703.34;10418792;28;20034;-74
2023/12/08 09:42:49;;;;;;;58.97;22.45;;;;;;;0.19;100.00;100700.44;10387263;28;20132;-73
2023/12/08 09:47:52;;;;;;;55.63;24.37;;;;;;;0.24;100.00;100726.09;10435798;28;20044;-74
2023/12/08 09:52:53;;;;;;;58.53;23.63;;;;;;;0.25;100.00;100717.81;10400462;28;20076;-73
2023/12/08 09:57:54;;;;;;;52.07;23.73;;;;;;;0.22;100.00;100701.91;10374508;28;20048;-74
2023/12/08 10:02:54;;;;;;;53.67;24.80;;;;;;;0.32;100.00;100699.75;10397953;28;20049;-74
2023/12/08 10:07:56;;;;;;;49.20;23.20;;;;;;;0.34;100.00;100675.19;10382189;28;20508;-74
2023/12/08 10:12:58;;;;;;;55.83;24.40;;;;;;;0.31;100.00;100670.16;10367363;28;20093;-73
2023/12/08 10:17:58;;;;;;;47.27;22.30;;;;;;;0.44;100.00;100691.13;10382159;28;20582;-74
2023/12/08 10:22:59;;;;;;;51.87;22.17;;;;;;;0.44;100.00;100691.97;10397099;28;20044;-74
2023/12/08 10:27:59;;;;;;;48.07;22.33;;;;;;;0.46;100.00;100705.31;10425227;28;20041;-73
2023/12/08 10:32:59;;;;;;;54.83;24.10;;;;;;;0.44;100.00;100697.38;10423224;28;20030;-73
2023/12/08 10:38:00;;;;;;;52.83;23.73;;;;;;;0.39;100.00;100688.97;10400949;28;20037;-72
2023/12/08 10:43:00;;;;;;;52.17;24.27;;;;;;;0.33;100.00;100684.31;10401109;28;20463;-72
2023/12/08 10:48:02;;;;;;;52.20;23.87;;;;;;;0.33;100.00;100670.78;10425537;28;20052;-72
2023/12/08 10:53:03;;;;;;;56.75;23.67;;;;;;;0.46;100.00;100689.91;10405625;28;20800;-71
2023/12/08 10:58:05;;;;;;;51.70;23.50;;;;;;;0.37;100.00;100655.84;10415724;28;20037;-71
2023/12/08 11:03:05;;;;;;;56.33;23.30;;;;;;;0.51;100.00;100676.59;10398070;28;20476;-73
2023/12/08 11:08:12;;;;;;;56.93;23.83;;;;;;;0.58;100.00;100693.78;10393660;28;20041;-71
2023/12/08 11:13:28;;;;;;;53.53;24.03;;;;;;;0.60;100.00;100697.13;10403921;28;20056;-71
2023/12/08 11:18:30;;;;;;;54.28;23.50;;;;;;;0.62;100.00;100685.25;10403914;28;20468;-71
2023/12/08 11:23:30;;;;;;;53.10;23.73;;;;;;;0.66;100.00;100683.84;10417508;28;20520;-71
2023/12/08 11:29:24;;;;;;;53.50;24.00;;;;;;;0.67;100.00;100682.81;10418467;28;20045;-71
2023/12/08 11:34:49;;;;;;;48.70;24.37;;;;;;;0.69;100.00;100681.59;10394047;28;20098;-72
2023/12/08 11:39:49;;;;;;;48.70;24.47;;;;;;;0.69;100.00;100668.03;10453662;28;20135;-72
2023/12/08 11:44:50;;;;;;;51.53;24.30;;;;;;;0.38;100.00;100604.19;10432056;28;20037;-70
2023/12/08 11:49:52;;;;;;;54.37;25.40;;;;;;;0.70;100.00;100660.72;10444307;28;20041;-71
2023/12/08 11:55:19;;;;;;;64.23;25.30;;;;;;;0.73;100.00;100669.31;10394588;28;20036;-71
2023/12/08 12:00:21;;;;;;;50.93;24.20;;;;;;;0.72;100.00;100655.97;10439795;28;20127;-70
2023/12/08 12:05:22;;;;;;;51.57;24.43;;;;;;;0.67;100.00;100655.72;10444825;28;20037;-72
2023/12/08 12:10:27;;;;;;;58.93;24.47;;;;;;;0.77;100.00;100664.34;10432858;28;20041;-72
2023/12/08 12:15:30;;;;;;;59.13;27.10;;;;;;;0.73;100.00;100657.66;10418872;28;20037;-88
2023/12/08 12:20:34;;;;;;;56.83;26.23;;;;;;;0.79;100.00;100662.28;10424289;28;20036;-86
2023/12/08 12:25:34;;;;;;;58.75;28.10;;;;;;;0.85;100.00;100661.50;10452996;28;20035;-86
2023/12/08 12:30:35;;;;;;;62.77;26.07;;;;;;;0.86;100.00;100660.47;10454596;28;20036;-87
2023/12/08 12:35:35;;;;;;;65.00;29.20;;;;;;;0.88;100.00;100663.81;10477894;28;20029;-85
2023/12/08 12:40:36;;;;;;;71.72;27.95;;;;;;;0.88;100.00;100666.53;10444046;28;20060;-89
2023/12/08 12:45:36;;;;;;;65.50;26.93;;;;;;;0.81;100.00;100654.81;10451846;28;20048;-92
2023/12/08 12:50:49;;;;;;;72.77;29.80;;;;;;;0.88;100.00;100674.66;10439304;28;20036;-92
2023/12/08 12:55:50;;;;;;;70.20;28.63;;;;;;;0.90;100.00;100680.72;10454613;28;20382;-91
2023/12/08 13:00:51;;;;;;;80.70;30.53;;;;;;;0.20;100.00;100553.19;10459566;28;20040;-90
2023/12/08 13:05:56;;;;;;;76.07;28.77;;;;;;;0.94;100.00;100671.16;10457343;28;20306;-87
2023/12/08 13:10:56;;;;;;;88.75;31.27;;;;;;;0.96;100.00;100676.41;10458222;28;20068;-89
2023/12/08 13:15:57;;;;;;;77.53;29.90;;;;;;;0.97;100.00;100661.78;10451674;28;20371;-88
2023/12/08 13:20:57;;;;;;;78.53;31.40;;;;;;;0.99;100.00;100657.88;10480060;28;20400;-87
2023/12/08 13:25:58;;;;;;;86.83;32.70;;;;;;;0.96;100.00;100674.50;10466833;28;20049;-88
2023/12/08 13:30:59;;;;;;;81.70;30.30;;;;;;;0.97;100.00;100670.78;10471902;28;20519;-89
2023/12/08 13:35:59;;;;;;;87.23;31.77;;;;;;;1.00;100.00;100681.22;10442441;28;20037;-89
2023/12/08 13:41:00;;;;;;;114.37;32.97;;;;;;;0.96;100.00;100679.94;10466427;28;20108;-73
2023/12/08 13:46:00;;;;;;;93.10;32.72;;;;;;;1.04;100.00;100697.94;10431582;28;20037;-87
2023/12/08 13:51:01;;;;;;;85.83;30.63;;;;;;;1.07;100.00;100691.28;10467714;28;20484;-85
2023/12/08 13:56:01;;;;;;;84.22;32.03;;;;;;;1.07;100.00;100694.00;10469461;28;20401;-86
2023/12/08 14:01:02;;;;;;;88.37;31.80;;;;;;;1.08;100.00;100703.81;10441678;28;20120;-87
2023/12/08 14:06:03;;;;;;;86.30;30.77;;;;;;;1.10;100.00;100696.31;10474047;28;20044;-86
2023/12/08 14:11:04;;;;;;;118.73;35.43;;;;;;;1.09;100.00;100705.47;10465376;28;20033;-88
2023/12/08 14:16:05;;;;;;;122.83;33.03;;;;;;;1.09;100.00;100702.78;10455921;28;20044;-86
2023/12/08 14:21:05;;;;;;;99.03;33.03;;;;;;;1.08;100.00;100699.22;10475096;28;20040;-88
2023/12/08 14:26:06;;;;;;;104.37;35.43;;;;;;;1.07;100.00;100710.25;10468363;28;20071;-87
2023/12/08 14:31:07;;;;;;;132.37;35.90;;;;;;;1.09;100.00;100702.78;10431728;28;20040;-88
2023/12/08 14:36:08;;;;;;;117.23;34.73;;;;;;;1.06;100.00;100705.88;10463761;28;20036;-89
2023/12/08 14:41:09;;;;;;;144.23;36.23;;;;;;;1.10;100.00;100716.13;10437479;28;20040;-87
2023/12/08 14:46:09;;;;;;;128.10;33.73;;;;;;;1.08;100.00;100712.78;10445674;28;20045;-76
2023/12/08 14:51:17;;;;;;;126.47;35.13;;;;;;;1.11;100.00;100720.50;10437923;28;20045;-85
2023/12/08 14:56:18;;;;;;;167.70;37.37;;;;;;;1.12;100.00;100718.66;10446915;28;20041;-86
2023/12/08 15:01:20;;;;;;;144.18;37.47;;;;;;;1.12;100.00;100721.38;10436117;28;20036;-86
2023/12/08 15:06:21;;;;;;;138.37;37.03;;;;;;;1.14;100.00;100719.31;10454612;28;20039;-86
2023/12/08 15:11:22;;;;;;;124.93;38.60;;;;;;;1.14;100.00;100733.69;10437573;28;20037;-86
2023/12/08 15:16:22;;;;;;;143.93;37.20;;;;;;;1.08;100.00;100730.94;10441366;28;20079;-85
2023/12/08 15:21:26;;;;;;;149.18;39.08;;;;;;;1.17;100.00;100735.16;10407970;28;20033;-84
2023/12/08 15:26:26;;;;;;;144.00;39.53;;;;;;;1.18;100.00;100742.28;10439980;28;20041;-83
2023/12/08 15:31:29;;;;;;;151.20;40.70;;;;;;;1.11;100.00;100725.09;10441807;28;20041;-85
2023/12/08 15:36:29;;;;;;;127.32;38.00;;;;;;;1.19;100.00;100733.09;10423352;28;20403;-82
2023/12/08 15:41:30;;;;;;;165.50;39.78;;;;;;;1.22;100.00;100732.72;10440556;28;20045;-84
2023/12/08 15:46:30;;;;;;;131.00;36.67;;;;;;;1.23;100.00;100734.38;10440781;28;20128;-83
2023/12/08 15:51:31;;;;;;;161.95;39.13;;;;;;;1.13;100.00;100718.44;10439562;28;20053;-83
2023/12/08 15:56:36;;;;;;;171.88;39.70;;;;;;;1.19;100.00;100722.25;10440062;28;20120;-80
2023/12/08 16:01:37;;;;;;;252.43;44.03;;;;;;;1.28;100.00;100741.91;10406995;28;20060;-82
2023/12/08 16:06:37;;;;;;;217.90;44.13;;;;;;;1.29;100.00;100747.16;10420454;28;20049;-83
2023/12/08 16:11:38;;;;;;;170.30;42.60;;;;;;;1.31;100.00;100747.81;10443497;28;20044;-82
2023/12/08 16:16:38;;;;;;;237.17;44.20;;;;;;;1.33;100.00;100753.03;10443105;28;20033;-81
2023/12/08 16:21:39;;;;;;;144.10;39.13;;;;;;;1.34;100.00;100752.81;10439175;28;20044;-81
2023/12/08 16:26:39;;;;;;;192.53;43.40;;;;;;;1.36;100.00;100761.59;10426504;28;20048;-81
2023/12/08 16:31:40;;;;;;;157.00;41.80;;;;;;;1.39;100.00;100753.06;10445838;28;20045;-82
2023/12/08 16:36:40;;;;;;;146.40;41.43;;;;;;;1.43;100.00;100756.25;10407833;28;20040;-82
2023/12/08 16:41:41;;;;;;;200.15;44.78;;;;;;;1.38;100.00;100755.97;10427079;28;20112;-81
2023/12/08 16:46:41;;;;;;;222.80;46.53;;;;;;;1.47;100.00;100768.38;10416603;28;20557;-81
2023/12/08 16:51:42;;;;;;;177.55;43.13;;;;;;;1.51;100.00;100756.09;10451346;28;20053;-82
2023/12/08 16:56:43;;;;;;;178.80;42.13;;;;;;;1.55;100.00;100753.81;10426090;28;20083;-82
2023/12/08 17:01:43;;;;;;;233.53;45.60;;;;;;;1.56;100.00;100750.06;10392915;28;20054;-82
2023/12/08 17:06:43;;;;;;;177.47;45.37;;;;;;;1.55;100.00;100754.66;10446296;28;20041;-82
2023/12/08 17:11:44;;;;;;;256.90;49.70;;;;;;;1.67;100.00;100763.06;10410039;28;20045;-83
2023/12/08 17:16:44;;;;;;;273.42;48.20;;;;;;;1.71;100.00;100779.81;10454967;28;20037;-83
2023/12/08 17:21:45;;;;;;;207.33;46.60;;;;;;;1.74;100.00;100780.25;10438764;28;20045;-84
2023/12/08 17:26:46;;;;;;;228.87;47.57;;;;;;;1.79;100.00;100785.91;10456717;28;20045;-79
2023/12/08 17:31:47;;;;;;;206.13;46.73;;;;;;;1.83;100.00;100772.78;10456902;28;20124;-75
2023/12/08 17:36:48;;;;;;;162.32;42.75;;;;;;;1.85;100.00;100780.75;10432661;28;20040;-84
2023/12/08 17:41:49;;;;;;;291.35;49.17;;;;;;;1.88;100.00;100770.34;10440105;28;20044;-84
2023/12/08 17:46:49;;;;;;;271.20;46.53;;;;;;;1.88;100.00;100764.03;10439334;28;20045;-87
2023/12/08 17:51:50;;;;;;;168.70;44.72;;;;;;;1.95;100.00;100781.22;10452831;28;20048;-84
2023/12/08 17:56:50;;;;;;;298.90;47.40;;;;;;;1.99;100.00;100779.78;10455201;28;20041;-83
2023/12/08 18:01:51;;;;;;;253.55;47.55;;;;;;;2.03;100.00;100772.91;10452104;28;20140;-79
2023/12/08 18:06:51;;;;;;;352.20;50.27;;;;;;;2.09;100.00;100777.53;10455252;28;20041;-80
2023/12/08 18:11:52;;;;;;;298.97;46.73;;;;;;;2.18;100.00;100776.31;10424217;28;20036;-80
2023/12/08 18:16:52;;;;;;;276.85;46.58;;;;;;;2.21;100.00;100759.63;10438290;28;20056;-80
2023/12/08 18:21:52;;;;;;;290.63;47.03;;;;;;;2.39;100.00;100775.38;10420267;28;20040;-78
2023/12/08 18:26:53;;;;;;;300.83;48.00;;;;;;;2.48;100.00;100754.31;10456280;28;20052;-81
2023/12/08 18:31:53;;;;;;;449.90;57.60;;;;;;;2.59;100.00;100756.44;10469914;28;20495;-82
2023/12/08 18:36:54;;;;;;;373.33;52.13;;;;;;;2.67;100.00;100768.13;10462624;28;20503;-82
2023/12/08 18:41:54;;;;;;;332.20;47.28;;;;;;;2.76;100.00;100764.22;10455851;28;20029;-82
2023/12/08 18:46:55;;;;;;;367.08;52.15;;;;;;;2.75;100.00;100760.66;10457295;28;20040;-82
2023/12/08 18:51:55;;;;;;;358.98;50.40;;;;;;;2.86;100.00;100772.81;10445058;28;20041;-82
2023/12/08 18:56:56;;;;;;;342.88;49.22;;;;;;;2.91;100.00;100770.28;10462509;28;20041;-82
2023/12/08 19:01:56;;;;;;;334.35;50.63;;;;;;;2.96;100.00;100778.69;10444718;28;20151;-83
2023/12/08 19:06:57;;;;;;;384.13;52.70;;;;;;;3.02;100.00;100772.41;10443983;28;20547;-82
2023/12/08 19:11:57;;;;;;;365.23;52.20;;;;;;;3.23;100.00;100773.28;10444918;28;20468;-73
2023/12/08 19:16:57;;;;;;;273.63;48.80;;;;;;;3.32;100.00;100772.00;10463427;28;20060;-82
2023/12/08 19:21:58;;;;;;;489.42;64.13;;;;;;;3.38;100.00;100775.78;10446834;28;20042;-83
2023/12/08 19:27:01;;;;;;;435.38;60.85;;;;;;;3.39;100.00;100770.16;10442945;28;20037;-83
2023/12/08 19:32:01;;;;;;;447.83;56.38;;;;;;;3.43;100.00;100784.16;10461276;28;20044;-84
2023/12/08 19:37:02;;;;;;;388.65;52.78;;;;;;;3.39;100.00;100778.31;10460832;28;20041;-82
2023/12/08 19:42:03;;;;;;;455.65;56.47;;;;;;;3.55;100.00;100787.09;10443794;28;20041;-84
2023/12/08 19:47:03;;;;;;;401.42;64.93;;;;;;;3.66;100.00;100782.88;10426636;28;20049;-83
2023/12/08 19:52:04;;;;;;;344.92;53.97;;;;;;;3.76;100.00;100789.59;10443047;28;20037;-81
2023/12/08 19:57:08;;;;;;;268.17;50.25;;;;;;;3.92;100.00;100793.75;10442361;28;20029;-80
2023/12/08 20:02:09;;;;;;;389.50;59.88;;;;;;;4.12;100.00;100792.88;10444436;28;20064;-81
2023/12/08 20:07:09;;;;;;;366.23;58.33;;;;;;;4.18;100.00;100792.84;10441493;28;20048;-82
2023/12/08 20:12:10;;;;;;;320.65;54.42;;;;;;;4.30;100.00;100801.22;10445709;28;20041;-81
2023/12/08 20:17:10;;;;;;;259.45;53.17;;;;;;;4.43;100.00;100800.31;10459903;28;20037;-81
2023/12/08 20:22:11;;;;;;;271.63;54.53;;;;;;;4.49;100.00;100794.00;10441125;28;20029;-82
2023/12/08 20:27:11;;;;;;;248.18;56.25;;;;;;;4.59;100.00;100794.38;10418410;28;20052;-81
2023/12/08 20:32:12;;;;;;;243.23;52.03;;;;;;;4.68;100.00;100785.94;10422998;28;20037;-82
2023/12/08 20:37:12;;;;;;;261.88;53.33;;;;;;;4.78;100.00;100770.78;10436172;28;20044;-82
2023/12/08 20:42:13;;;;;;;232.80;49.40;;;;;;;4.77;100.00;100774.53;10443766;28;20116;-81
2023/12/08 20:47:13;;;;;;;240.88;55.97;;;;;;;4.87;100.00;100785.00;10428135;28;20464;-81
2023/12/08 20:52:14;;;;;;;213.93;52.53;;;;;;;5.00;100.00;100784.94;10427598;28;20037;-81
2023/12/08 20:57:14;;;;;;;239.70;55.53;;;;;;;5.12;100.00;100782.31;10442130;28;20048;-82
2023/12/08 21:02:15;;;;;;;216.77;56.70;;;;;;;5.20;100.00;100778.47;10459581;28;20044;-81
2023/12/08 21:07:15;;;;;;;248.10;57.10;;;;;;;5.32;100.00;100797.72;10430858;28;20106;-81
2023/12/08 21:12:17;;;;;;;258.42;55.83;;;;;;;5.38;100.00;100789.47;10457073;28;20049;-76
2023/12/08 21:17:17;;;;;;;225.90;60.28;;;;;;;5.42;100.00;100793.44;10422599;28;20052;-73
2023/12/08 21:22:18;;;;;;;248.85;53.67;;;;;;;5.52;100.00;100792.94;10461465;28;20049;-79
2023/12/08 21:27:18;;;;;;;244.57;54.80;;;;;;;5.59;100.00;100801.91;10405323;28;20064;-78
2023/12/08 21:32:20;;;;;;;218.82;54.88;;;;;;;5.55;100.00;100791.66;10438707;28;20033;-78
2023/12/08 21:37:20;;;;;;;247.40;59.15;;;;;;;5.69;100.00;100797.84;10439947;28;20029;-79
2023/12/08 21:42:20;;;;;;;234.07;54.33;;;;;;;5.69;100.00;100793.22;10438901;28;20094;-79
2023/12/08 21:47:21;;;;;;;239.63;59.63;;;;;;;5.73;100.00;100791.69;10430651;28;20029;-79
2023/12/08 21:52:22;;;;;;;219.35;54.30;;;;;;;5.65;100.00;100797.44;10441332;28;20044;-80
2023/12/08 21:57:23;;;;;;;219.32;54.65;;;;;;;5.81;100.00;100796.88;10436506;28;20048;-80
2023/12/08 22:02:23;;;;;;;219.05;55.50;;;;;;;5.79;100.00;100792.72;10436674;28;20029;-80
2023/12/08 22:07:24;;;;;;;237.07;59.88;;;;;;;5.96;100.00;100798.44;10419662;28;20456;-79
2023/12/08 22:12:24;;;;;;;200.60;53.00;;;;;;;5.95;100.00;100797.59;10456401;28;20037;-78
2023/12/08 22:17:25;;;;;;;199.73;52.83;;;;;;;5.97;100.00;100808.31;10406141;28;20040;-78
2023/12/08 22:22:25;;;;;;;187.50;50.80;;;;;;;5.95;100.00;100794.88;10437218;28;20041;-78